sensor_id;sensor_type;location;lat;lon;timestamp;P1;durP1;ratioP1;P2;durP2;ratioP2
15354;SDS011;7777;52.254;9.618;2023-08-31T00:00:42;9.67;;;7.00;;
15354;SDS011;7777;52.254;9.618;2023-08-31T00:03:09;7.43;;;6.63;;
15354;SDS011;7777;52.254;9.618;2023-08-31T00:05:40;8.73;;;6.60;;
15354;SDS011;7777;52.254;9.618;2023-08-31T00:08:06;9.13;;;7.10;;
15354;SDS011;7777;52.254;9.618;2023-08-31T00:10:36;7.80;;;6.93;;
15354;SDS011;7777;52.254;9.618;2023-08-31T00:13:02;9.80;;;7.20;;
15354;SDS011;7777;52.254;9.618;2023-08-31T00:15:29;8.50;;;6.73;;
15354;SDS011;7777;52.254;9.618;2023-08-31T00:17:57;7.73;;;6.40;;
15354;SDS011;7777;52.254;9.618;2023-08-31T00:20:24;10.40;;;7.83;;
15354;SDS011;7777;52.254;9.618;2023-08-31T00:22:56;10.73;;;6.73;;
15354;SDS011;7777;52.254;9.618;2023-08-31T00:25:23;8.00;;;7.07;;
15354;SDS011;7777;52.254;9.618;2023-08-31T00:27:55;11.27;;;7.13;;
15354;SDS011;7777;52.254;9.618;2023-08-31T00:30:22;8.77;;;6.20;;
15354;SDS011;7777;52.254;9.618;2023-08-31T00:32:54;10.80;;;6.77;;
15354;SDS011;7777;52.254;9.618;2023-08-31T00:35:20;7.73;;;6.70;;
15354;SDS011;7777;52.254;9.618;2023-08-31T00:37:46;9.80;;;6.30;;
15354;SDS011;7777;52.254;9.618;2023-08-31T00:40:11;9.33;;;6.43;;
15354;SDS011;7777;52.254;9.618;2023-08-31T00:42:39;9.23;;;6.63;;
15354;SDS011;7777;52.254;9.618;2023-08-31T00:45:05;10.83;;;6.37;;
15354;SDS011;7777;52.254;9.618;2023-08-31T00:47:32;8.40;;;6.27;;
15354;SDS011;7777;52.254;9.618;2023-08-31T00:49:57;10.50;;;6.83;;
15354;SDS011;7777;52.254;9.618;2023-08-31T00:52:23;9.17;;;6.53;;
15354;SDS011;7777;52.254;9.618;2023-08-31T00:54:50;14.57;;;6.77;;
15354;SDS011;7777;52.254;9.618;2023-08-31T00:57:17;9.80;;;7.03;;
15354;SDS011;7777;52.254;9.618;2023-08-31T00:59:43;9.23;;;6.50;;
15354;SDS011;7777;52.254;9.618;2023-08-31T01:04:58;9.83;;;5.93;;
15354;SDS011;7777;52.254;9.618;2023-08-31T01:07:40;8.50;;;6.17;;
15354;SDS011;7777;52.254;9.618;2023-08-31T01:13:41;8.10;;;5.33;;
15354;SDS011;7777;52.254;9.618;2023-08-31T01:16:24;7.57;;;6.00;;
15354;SDS011;7777;52.254;9.618;2023-08-31T01:18:51;9.30;;;5.90;;
15354;SDS011;7777;52.254;9.618;2023-08-31T01:21:25;8.40;;;6.23;;
15354;SDS011;7777;52.254;9.618;2023-08-31T01:23:57;10.17;;;5.80;;
15354;SDS011;7777;52.254;9.618;2023-08-31T01:26:24;10.53;;;6.57;;
15354;SDS011;7777;52.254;9.618;2023-08-31T01:28:50;7.70;;;6.13;;
15354;SDS011;7777;52.254;9.618;2023-08-31T01:31:17;9.63;;;6.73;;
15354;SDS011;7777;52.254;9.618;2023-08-31T01:33:43;12.77;;;7.07;;
15354;SDS011;7777;52.254;9.618;2023-08-31T01:41:48;8.47;;;6.80;;
15354;SDS011;7777;52.254;9.618;2023-08-31T01:44:23;9.70;;;7.60;;
15354;SDS011;7777;52.254;9.618;2023-08-31T01:46:53;15.40;;;7.33;;
15354;SDS011;7777;52.254;9.618;2023-08-31T01:49:28;10.80;;;7.67;;
15354;SDS011;7777;52.254;9.618;2023-08-31T01:52:01;10.60;;;7.33;;
15354;SDS011;7777;52.254;9.618;2023-08-31T01:54:26;11.60;;;8.43;;
15354;SDS011;7777;52.254;9.618;2023-08-31T01:56:52;13.97;;;9.03;;
15354;SDS011;7777;52.254;9.618;2023-08-31T01:59:18;12.27;;;8.67;;
15354;SDS011;7777;52.254;9.618;2023-08-31T02:01:43;10.00;;;8.30;;
15354;SDS011;7777;52.254;9.618;2023-08-31T02:04:09;14.23;;;8.77;;
15354;SDS011;7777;52.254;9.618;2023-08-31T02:06:35;13.10;;;9.20;;
15354;SDS011;7777;52.254;9.618;2023-08-31T02:09:01;12.70;;;9.03;;
15354;SDS011;7777;52.254;9.618;2023-08-31T02:11:27;17.63;;;9.53;;
15354;SDS011;7777;52.254;9.618;2023-08-31T02:13:52;12.03;;;9.40;;
15354;SDS011;7777;52.254;9.618;2023-08-31T02:16:18;14.90;;;9.13;;
15354;SDS011;7777;52.254;9.618;2023-08-31T02:18:44;11.60;;;8.20;;
15354;SDS011;7777;52.254;9.618;2023-08-31T02:21:10;14.03;;;8.90;;
15354;SDS011;7777;52.254;9.618;2023-08-31T02:23:35;10.63;;;8.70;;
15354;SDS011;7777;52.254;9.618;2023-08-31T02:26:01;12.60;;;8.60;;
15354;SDS011;7777;52.254;9.618;2023-08-31T02:28:27;10.10;;;8.17;;
15354;SDS011;7777;52.254;9.618;2023-08-31T02:30:59;10.13;;;7.57;;
15354;SDS011;7777;52.254;9.618;2023-08-31T02:33:26;11.60;;;9.60;;
15354;SDS011;7777;52.254;9.618;2023-08-31T02:35:53;11.80;;;8.93;;
15354;SDS011;7777;52.254;9.618;2023-08-31T02:38:19;10.57;;;7.87;;
15354;SDS011;7777;52.254;9.618;2023-08-31T02:40:45;12.77;;;8.97;;
15354;SDS011;7777;52.254;9.618;2023-08-31T02:43:12;13.20;;;9.67;;
15354;SDS011;7777;52.254;9.618;2023-08-31T02:45:39;12.57;;;9.20;;
15354;SDS011;7777;52.254;9.618;2023-08-31T02:48:07;11.50;;;8.57;;
15354;SDS011;7777;52.254;9.618;2023-08-31T02:50:36;14.70;;;8.57;;
15354;SDS011;7777;52.254;9.618;2023-08-31T02:53:03;17.57;;;9.17;;
15354;SDS011;7777;52.254;9.618;2023-08-31T02:55:31;12.27;;;9.30;;
15354;SDS011;7777;52.254;9.618;2023-08-31T02:57:58;11.07;;;9.27;;
15354;SDS011;7777;52.254;9.618;2023-08-31T03:00:24;12.10;;;8.93;;
15354;SDS011;7777;52.254;9.618;2023-08-31T03:02:49;12.83;;;10.13;;
15354;SDS011;7777;52.254;9.618;2023-08-31T03:05:18;10.83;;;8.53;;
15354;SDS011;7777;52.254;9.618;2023-08-31T03:07:46;9.80;;;8.40;;
15354;SDS011;7777;52.254;9.618;2023-08-31T03:10:12;13.20;;;8.90;;
15354;SDS011;7777;52.254;9.618;2023-08-31T03:12:38;11.83;;;8.83;;
15354;SDS011;7777;52.254;9.618;2023-08-31T03:15:05;17.47;;;7.03;;
15354;SDS011;7777;52.254;9.618;2023-08-31T03:17:32;11.47;;;7.50;;
15354;SDS011;7777;52.254;9.618;2023-08-31T03:19:58;10.73;;;6.47;;
15354;SDS011;7777;52.254;9.618;2023-08-31T03:22:23;14.27;;;5.97;;
15354;SDS011;7777;52.254;9.618;2023-08-31T03:24:49;11.43;;;5.90;;
15354;SDS011;7777;52.254;9.618;2023-08-31T03:27:15;8.30;;;5.10;;
15354;SDS011;7777;52.254;9.618;2023-08-31T03:29:41;7.80;;;4.87;;
15354;SDS011;7777;52.254;9.618;2023-08-31T03:32:07;7.93;;;4.70;;
15354;SDS011;7777;52.254;9.618;2023-08-31T03:34:33;12.23;;;5.23;;
15354;SDS011;7777;52.254;9.618;2023-08-31T03:36:59;8.50;;;4.93;;
15354;SDS011;7777;52.254;9.618;2023-08-31T03:39:25;8.20;;;5.70;;
15354;SDS011;7777;52.254;9.618;2023-08-31T03:41:51;7.30;;;5.67;;
15354;SDS011;7777;52.254;9.618;2023-08-31T03:44:17;9.10;;;5.27;;
15354;SDS011;7777;52.254;9.618;2023-08-31T03:46:42;10.03;;;6.47;;
15354;SDS011;7777;52.254;9.618;2023-08-31T03:49:08;13.97;;;6.70;;
15354;SDS011;7777;52.254;9.618;2023-08-31T03:51:34;9.30;;;6.07;;
15354;SDS011;7777;52.254;9.618;2023-08-31T07:37:34;14.63;;;9.27;;
15354;SDS011;7777;52.254;9.618;2023-08-31T07:40:02;12.10;;;9.27;;
15354;SDS011;7777;52.254;9.618;2023-08-31T07:42:33;14.93;;;9.93;;
15354;SDS011;7777;52.254;9.618;2023-08-31T07:45:03;13.63;;;9.73;;
15354;SDS011;7777;52.254;9.618;2023-08-31T07:47:30;11.30;;;10.20;;
15354;SDS011;7777;52.254;9.618;2023-08-31T07:49:56;9.63;;;8.63;;
15354;SDS011;7777;52.254;9.618;2023-08-31T07:52:23;10.00;;;8.60;;
15354;SDS011;7777;52.254;9.618;2023-08-31T07:54:48;10.27;;;8.60;;
15354;SDS011;7777;52.254;9.618;2023-08-31T07:57:17;9.00;;;8.10;;
15354;SDS011;7777;52.254;9.618;2023-08-31T07:59:43;9.37;;;8.20;;
15354;SDS011;7777;52.254;9.618;2023-08-31T08:02:11;8.97;;;8.07;;
15354;SDS011;7777;52.254;9.618;2023-08-31T08:04:37;8.57;;;7.70;;
15354;SDS011;7777;52.254;9.618;2023-08-31T08:07:03;9.60;;;7.97;;
15354;SDS011;7777;52.254;9.618;2023-08-31T08:09:29;10.07;;;8.53;;
15354;SDS011;7777;52.254;9.618;2023-08-31T08:11:55;9.30;;;7.40;;
15354;SDS011;7777;52.254;9.618;2023-08-31T08:14:21;9.63;;;8.33;;
15354;SDS011;7777;52.254;9.618;2023-08-31T08:16:47;9.03;;;6.83;;
15354;SDS011;7777;52.254;9.618;2023-08-31T08:19:13;9.13;;;7.20;;
15354;SDS011;7777;52.254;9.618;2023-08-31T08:21:39;9.33;;;7.40;;
15354;SDS011;7777;52.254;9.618;2023-08-31T08:24:05;8.97;;;7.60;;
15354;SDS011;7777;52.254;9.618;2023-08-31T08:26:31;7.57;;;6.80;;
15354;SDS011;7777;52.254;9.618;2023-08-31T08:28:57;8.97;;;6.90;;
15354;SDS011;7777;52.254;9.618;2023-08-31T08:31:23;9.27;;;6.30;;
15354;SDS011;7777;52.254;9.618;2023-08-31T08:33:52;7.63;;;5.77;;
15354;SDS011;7777;52.254;9.618;2023-08-31T08:36:18;10.10;;;6.40;;
15354;SDS011;7777;52.254;9.618;2023-08-31T08:38:44;8.90;;;6.10;;
15354;SDS011;7777;52.254;9.618;2023-08-31T08:41:10;7.70;;;5.80;;
15354;SDS011;7777;52.254;9.618;2023-08-31T08:43:37;7.47;;;6.47;;
15354;SDS011;7777;52.254;9.618;2023-08-31T08:46:09;7.30;;;5.80;;
15354;SDS011;7777;52.254;9.618;2023-08-31T08:48:35;8.10;;;6.30;;
15354;SDS011;7777;52.254;9.618;2023-08-31T08:51:03;8.83;;;6.10;;
15354;SDS011;7777;52.254;9.618;2023-08-31T08:53:29;6.60;;;5.67;;
15354;SDS011;7777;52.254;9.618;2023-08-31T08:55:55;7.60;;;5.30;;
15354;SDS011;7777;52.254;9.618;2023-08-31T08:58:22;8.43;;;5.23;;
15354;SDS011;7777;52.254;9.618;2023-08-31T09:00:48;7.10;;;5.73;;
15354;SDS011;7777;52.254;9.618;2023-08-31T09:03:14;8.20;;;5.27;;
15354;SDS011;7777;52.254;9.618;2023-08-31T09:05:40;7.20;;;5.10;;
15354;SDS011;7777;52.254;9.618;2023-08-31T09:08:20;6.93;;;6.10;;
15354;SDS011;7777;52.254;9.618;2023-08-31T09:16:47;7.63;;;6.13;;
15354;SDS011;7777;52.254;9.618;2023-08-31T09:19:24;6.00;;;5.20;;
15354;SDS011;7777;52.254;9.618;2023-08-31T09:21:56;8.90;;;5.60;;
15354;SDS011;7777;52.254;9.618;2023-08-31T09:27:28;7.10;;;4.93;;
15354;SDS011;7777;52.254;9.618;2023-08-31T09:29:56;5.57;;;4.47;;
15354;SDS011;7777;52.254;9.618;2023-08-31T09:32:23;7.23;;;5.63;;
15354;SDS011;7777;52.254;9.618;2023-08-31T09:34:52;10.47;;;5.53;;
15354;SDS011;7777;52.254;9.618;2023-08-31T09:37:23;8.90;;;5.77;;
15354;SDS011;7777;52.254;9.618;2023-08-31T09:39:51;6.27;;;5.23;;
15354;SDS011;7777;52.254;9.618;2023-08-31T09:42:36;9.13;;;4.80;;
15354;SDS011;7777;52.254;9.618;2023-08-31T09:45:05;5.77;;;4.60;;
15354;SDS011;7777;52.254;9.618;2023-08-31T09:47:32;6.07;;;4.80;;
15354;SDS011;7777;52.254;9.618;2023-08-31T09:49:59;11.83;;;4.53;;
15354;SDS011;7777;52.254;9.618;2023-08-31T09:52:37;5.57;;;4.57;;
15354;SDS011;7777;52.254;9.618;2023-08-31T09:55:29;5.87;;;4.30;;
15354;SDS011;7777;52.254;9.618;2023-08-31T09:58:31;9.13;;;3.77;;
15354;SDS011;7777;52.254;9.618;2023-08-31T10:00:59;4.47;;;3.87;;
15354;SDS011;7777;52.254;9.618;2023-08-31T10:03:26;5.93;;;3.70;;
15354;SDS011;7777;52.254;9.618;2023-08-31T10:05:52;3.73;;;3.33;;
15354;SDS011;7777;52.254;9.618;2023-08-31T10:11:06;4.73;;;3.40;;
15354;SDS011;7777;52.254;9.618;2023-08-31T10:13:39;4.80;;;3.77;;
15354;SDS011;7777;52.254;9.618;2023-08-31T10:16:06;7.27;;;4.13;;
15354;SDS011;7777;52.254;9.618;2023-08-31T10:18:55;6.83;;;4.10;;
15354;SDS011;7777;52.254;9.618;2023-08-31T10:21:22;6.67;;;3.87;;
15354;SDS011;7777;52.254;9.618;2023-08-31T10:27:40;6.53;;;3.83;;
15354;SDS011;7777;52.254;9.618;2023-08-31T10:30:12;5.63;;;4.07;;
15354;SDS011;7777;52.254;9.618;2023-08-31T10:35:48;7.83;;;3.87;;
15354;SDS011;7777;52.254;9.618;2023-08-31T10:39:17;6.93;;;4.10;;
15354;SDS011;7777;52.254;9.618;2023-08-31T10:42:00;9.50;;;4.43;;
15354;SDS011;7777;52.254;9.618;2023-08-31T10:44:27;4.87;;;3.77;;
15354;SDS011;7777;52.254;9.618;2023-08-31T10:46:58;5.87;;;3.70;;
15354;SDS011;7777;52.254;9.618;2023-08-31T10:49:25;4.30;;;3.90;;
15354;SDS011;7777;52.254;9.618;2023-08-31T10:51:54;5.90;;;3.67;;
15354;SDS011;7777;52.254;9.618;2023-08-31T10:54:27;6.50;;;4.10;;
15354;SDS011;7777;52.254;9.618;2023-08-31T11:02:36;5.97;;;3.43;;
15354;SDS011;7777;52.254;9.618;2023-08-31T11:07:47;4.93;;;3.07;;
15354;SDS011;7777;52.254;9.618;2023-08-31T11:10:18;5.83;;;3.30;;
15354;SDS011;7777;52.254;9.618;2023-08-31T11:12:51;5.63;;;3.30;;
15354;SDS011;7777;52.254;9.618;2023-08-31T11:15:28;5.43;;;3.33;;
15354;SDS011;7777;52.254;9.618;2023-08-31T11:17:57;6.70;;;3.20;;
15354;SDS011;7777;52.254;9.618;2023-08-31T11:20:27;11.30;;;3.90;;
15354;SDS011;7777;52.254;9.618;2023-08-31T11:22:56;4.17;;;2.47;;
15354;SDS011;7777;52.254;9.618;2023-08-31T11:25:22;5.33;;;3.10;;
15354;SDS011;7777;52.254;9.618;2023-08-31T11:27:59;6.17;;;3.60;;
15354;SDS011;7777;52.254;9.618;2023-08-31T11:30:31;6.10;;;3.33;;
15354;SDS011;7777;52.254;9.618;2023-08-31T11:33:02;4.80;;;3.20;;
15354;SDS011;7777;52.254;9.618;2023-08-31T11:35:39;6.23;;;3.33;;
15354;SDS011;7777;52.254;9.618;2023-08-31T11:38:10;3.50;;;2.83;;
15354;SDS011;7777;52.254;9.618;2023-08-31T11:40:37;4.07;;;2.77;;
15354;SDS011;7777;52.254;9.618;2023-08-31T11:43:05;5.17;;;3.20;;
15354;SDS011;7777;52.254;9.618;2023-08-31T11:45:33;3.63;;;2.40;;
15354;SDS011;7777;52.254;9.618;2023-08-31T11:48:01;3.53;;;2.43;;
15354;SDS011;7777;52.254;9.618;2023-08-31T11:50:28;5.67;;;2.50;;
15354;SDS011;7777;52.254;9.618;2023-08-31T11:52:54;4.27;;;2.47;;
15354;SDS011;7777;52.254;9.618;2023-08-31T11:55:20;4.37;;;2.57;;
15354;SDS011;7777;52.254;9.618;2023-08-31T11:57:48;3.10;;;2.10;;
15354;SDS011;7777;52.254;9.618;2023-08-31T12:00:16;2.10;;;1.70;;
15354;SDS011;7777;52.254;9.618;2023-08-31T12:02:44;3.50;;;2.37;;
15354;SDS011;7777;52.254;9.618;2023-08-31T12:05:13;4.53;;;2.53;;
15354;SDS011;7777;52.254;9.618;2023-08-31T12:07:40;3.20;;;2.03;;
15354;SDS011;7777;52.254;9.618;2023-08-31T12:10:07;4.07;;;2.03;;
15354;SDS011;7777;52.254;9.618;2023-08-31T12:12:34;2.50;;;1.97;;
15354;SDS011;7777;52.254;9.618;2023-08-31T12:15:02;5.47;;;2.30;;
15354;SDS011;7777;52.254;9.618;2023-08-31T12:17:30;3.43;;;2.30;;
15354;SDS011;7777;52.254;9.618;2023-08-31T12:20:03;5.77;;;2.07;;
15354;SDS011;7777;52.254;9.618;2023-08-31T12:22:35;5.13;;;2.13;;
15354;SDS011;7777;52.254;9.618;2023-08-31T12:25:04;4.23;;;2.13;;
15354;SDS011;7777;52.254;9.618;2023-08-31T12:27:32;3.43;;;1.90;;
15354;SDS011;7777;52.254;9.618;2023-08-31T12:32:48;1.73;;;1.30;;
15354;SDS011;7777;52.254;9.618;2023-08-31T12:35:44;1.00;;;0.80;;
15354;SDS011;7777;52.254;9.618;2023-08-31T12:38:34;1.37;;;1.10;;
15354;SDS011;7777;52.254;9.618;2023-08-31T12:41:01;1.40;;;0.90;;
15354;SDS011;7777;52.254;9.618;2023-08-31T12:43:27;1.67;;;0.90;;
15354;SDS011;7777;52.254;9.618;2023-08-31T12:45:54;2.20;;;1.13;;
15354;SDS011;7777;52.254;9.618;2023-08-31T12:48:21;1.70;;;1.10;;
15354;SDS011;7777;52.254;9.618;2023-08-31T12:50:46;2.60;;;0.80;;
15354;SDS011;7777;52.254;9.618;2023-08-31T12:53:25;3.83;;;0.90;;
15354;SDS011;7777;52.254;9.618;2023-08-31T12:59:04;2.97;;;1.27;;
15354;SDS011;7777;52.254;9.618;2023-08-31T13:01:39;3.57;;;1.10;;
15354;SDS011;7777;52.254;9.618;2023-08-31T13:04:10;1.77;;;0.73;;
15354;SDS011;7777;52.254;9.618;2023-08-31T13:06:40;2.20;;;0.93;;
15354;SDS011;7777;52.254;9.618;2023-08-31T13:09:06;2.07;;;0.97;;
15354;SDS011;7777;52.254;9.618;2023-08-31T13:11:44;1.57;;;0.73;;
15354;SDS011;7777;52.254;9.618;2023-08-31T13:14:12;3.73;;;1.30;;
15354;SDS011;7777;52.254;9.618;2023-08-31T13:16:41;5.00;;;1.50;;
15354;SDS011;7777;52.254;9.618;2023-08-31T13:19:09;4.07;;;1.07;;
15354;SDS011;7777;52.254;9.618;2023-08-31T13:21:38;2.57;;;0.80;;
15354;SDS011;7777;52.254;9.618;2023-08-31T13:24:15;1.77;;;0.80;;
15354;SDS011;7777;52.254;9.618;2023-08-31T13:26:41;1.00;;;0.60;;
15354;SDS011;7777;52.254;9.618;2023-08-31T13:29:24;3.50;;;1.10;;
15354;SDS011;7777;52.254;9.618;2023-08-31T13:31:50;4.70;;;1.47;;
15354;SDS011;7777;52.254;9.618;2023-08-31T13:34:15;2.50;;;1.10;;
15354;SDS011;7777;52.254;9.618;2023-08-31T13:36:46;4.07;;;1.17;;
15354;SDS011;7777;52.254;9.618;2023-08-31T13:39:17;2.30;;;1.10;;
15354;SDS011;7777;52.254;9.618;2023-08-31T13:41:43;4.10;;;1.13;;
15354;SDS011;7777;52.254;9.618;2023-08-31T13:44:11;2.43;;;0.70;;
15354;SDS011;7777;52.254;9.618;2023-08-31T13:46:38;2.07;;;1.00;;
15354;SDS011;7777;52.254;9.618;2023-08-31T13:49:16;4.67;;;0.90;;
15354;SDS011;7777;52.254;9.618;2023-08-31T13:51:46;4.20;;;0.70;;
15354;SDS011;7777;52.254;9.618;2023-08-31T13:54:21;1.37;;;0.70;;
15354;SDS011;7777;52.254;9.618;2023-08-31T13:56:58;2.93;;;0.90;;
15354;SDS011;7777;52.254;9.618;2023-08-31T13:59:24;1.87;;;0.77;;
15354;SDS011;7777;52.254;9.618;2023-08-31T14:01:52;2.40;;;0.90;;
15354;SDS011;7777;52.254;9.618;2023-08-31T14:04:21;2.17;;;0.70;;
15354;SDS011;7777;52.254;9.618;2023-08-31T14:06:47;2.73;;;0.67;;
15354;SDS011;7777;52.254;9.618;2023-08-31T14:09:15;1.93;;;0.70;;
15354;SDS011;7777;52.254;9.618;2023-08-31T14:11:43;1.43;;;0.60;;
15354;SDS011;7777;52.254;9.618;2023-08-31T14:14:09;2.80;;;0.80;;
15354;SDS011;7777;52.254;9.618;2023-08-31T14:16:36;1.47;;;0.67;;
15354;SDS011;7777;52.254;9.618;2023-08-31T14:19:03;1.93;;;0.77;;
15354;SDS011;7777;52.254;9.618;2023-08-31T14:21:31;2.77;;;0.70;;
15354;SDS011;7777;52.254;9.618;2023-08-31T14:23:57;3.47;;;0.93;;
15354;SDS011;7777;52.254;9.618;2023-08-31T14:26:23;3.10;;;0.80;;
15354;SDS011;7777;52.254;9.618;2023-08-31T14:28:50;3.77;;;1.20;;
15354;SDS011;7777;52.254;9.618;2023-08-31T14:31:16;2.83;;;1.07;;
15354;SDS011;7777;52.254;9.618;2023-08-31T14:33:43;4.87;;;0.97;;
15354;SDS011;7777;52.254;9.618;2023-08-31T14:36:09;3.13;;;1.00;;
15354;SDS011;7777;52.254;9.618;2023-08-31T14:38:35;2.33;;;0.80;;
15354;SDS011;7777;52.254;9.618;2023-08-31T14:41:00;4.03;;;0.90;;
15354;SDS011;7777;52.254;9.618;2023-08-31T14:43:27;5.07;;;1.20;;
15354;SDS011;7777;52.254;9.618;2023-08-31T14:45:52;2.83;;;1.23;;
15354;SDS011;7777;52.254;9.618;2023-08-31T14:48:18;4.37;;;1.17;;
15354;SDS011;7777;52.254;9.618;2023-08-31T14:50:44;2.30;;;0.80;;
15354;SDS011;7777;52.254;9.618;2023-08-31T14:53:09;2.63;;;0.80;;
15354;SDS011;7777;52.254;9.618;2023-08-31T14:55:36;1.80;;;0.80;;
15354;SDS011;7777;52.254;9.618;2023-08-31T14:58:02;3.60;;;1.20;;
15354;SDS011;7777;52.254;9.618;2023-08-31T15:00:31;4.13;;;0.80;;
15354;SDS011;7777;52.254;9.618;2023-08-31T15:02:56;2.23;;;0.73;;
15354;SDS011;7777;52.254;9.618;2023-08-31T15:05:22;2.03;;;0.77;;
15354;SDS011;7777;52.254;9.618;2023-08-31T15:07:50;1.90;;;0.60;;
15354;SDS011;7777;52.254;9.618;2023-08-31T15:10:16;1.43;;;0.80;;
15354;SDS011;7777;52.254;9.618;2023-08-31T15:12:43;3.50;;;1.13;;
15354;SDS011;7777;52.254;9.618;2023-08-31T15:15:09;2.57;;;0.87;;
15354;SDS011;7777;52.254;9.618;2023-08-31T15:17:35;1.60;;;0.73;;
15354;SDS011;7777;52.254;9.618;2023-08-31T15:20:01;2.30;;;1.00;;
15354;SDS011;7777;52.254;9.618;2023-08-31T15:22:28;3.70;;;1.10;;
15354;SDS011;7777;52.254;9.618;2023-08-31T15:24:54;4.03;;;1.33;;
15354;SDS011;7777;52.254;9.618;2023-08-31T15:27:20;3.40;;;1.10;;
15354;SDS011;7777;52.254;9.618;2023-08-31T15:29:45;2.90;;;1.10;;
15354;SDS011;7777;52.254;9.618;2023-08-31T15:32:11;2.83;;;0.93;;
15354;SDS011;7777;52.254;9.618;2023-08-31T15:34:37;2.40;;;1.30;;
15354;SDS011;7777;52.254;9.618;2023-08-31T15:37:03;2.20;;;1.00;;
15354;SDS011;7777;52.254;9.618;2023-08-31T15:39:28;5.77;;;1.00;;
15354;SDS011;7777;52.254;9.618;2023-08-31T15:41:55;5.67;;;1.07;;
15354;SDS011;7777;52.254;9.618;2023-08-31T15:44:21;1.57;;;0.73;;
15354;SDS011;7777;52.254;9.618;2023-08-31T15:46:46;6.43;;;1.27;;
15354;SDS011;7777;52.254;9.618;2023-08-31T15:49:12;2.97;;;1.10;;
15354;SDS011;7777;52.254;9.618;2023-08-31T15:51:38;1.83;;;0.97;;
15354;SDS011;7777;52.254;9.618;2023-08-31T15:54:03;2.50;;;0.90;;
15354;SDS011;7777;52.254;9.618;2023-08-31T15:56:30;3.73;;;1.20;;
15354;SDS011;7777;52.254;9.618;2023-08-31T15:58:57;3.43;;;1.23;;
15354;SDS011;7777;52.254;9.618;2023-08-31T16:01:24;2.37;;;1.00;;
15354;SDS011;7777;52.254;9.618;2023-08-31T16:03:51;2.60;;;0.97;;
15354;SDS011;7777;52.254;9.618;2023-08-31T16:06:16;3.20;;;1.10;;
15354;SDS011;7777;52.254;9.618;2023-08-31T16:08:42;3.13;;;0.90;;
15354;SDS011;7777;52.254;9.618;2023-08-31T16:11:08;4.20;;;0.73;;
15354;SDS011;7777;52.254;9.618;2023-08-31T16:13:34;2.93;;;1.10;;
15354;SDS011;7777;52.254;9.618;2023-08-31T16:16:01;0.97;;;0.70;;
15354;SDS011;7777;52.254;9.618;2023-08-31T16:18:27;2.20;;;0.83;;
15354;SDS011;7777;52.254;9.618;2023-08-31T16:20:52;2.53;;;0.80;;
15354;SDS011;7777;52.254;9.618;2023-08-31T16:23:18;3.93;;;1.00;;
15354;SDS011;7777;52.254;9.618;2023-08-31T16:26:05;2.10;;;0.90;;
15354;SDS011;7777;52.254;9.618;2023-08-31T16:29:00;4.00;;;1.33;;
15354;SDS011;7777;52.254;9.618;2023-08-31T16:31:30;6.27;;;0.90;;
15354;SDS011;7777;52.254;9.618;2023-08-31T16:34:05;6.13;;;1.03;;
15354;SDS011;7777;52.254;9.618;2023-08-31T16:36:37;3.37;;;0.93;;
15354;SDS011;7777;52.254;9.618;2023-08-31T16:39:03;3.93;;;1.10;;
15354;SDS011;7777;52.254;9.618;2023-08-31T16:41:47;6.30;;;1.07;;
15354;SDS011;7777;52.254;9.618;2023-08-31T16:44:13;2.33;;;1.00;;
15354;SDS011;7777;52.254;9.618;2023-08-31T16:46:42;4.27;;;1.20;;
15354;SDS011;7777;52.254;9.618;2023-08-31T16:49:08;4.10;;;0.90;;
15354;SDS011;7777;52.254;9.618;2023-08-31T16:51:34;4.17;;;0.90;;
15354;SDS011;7777;52.254;9.618;2023-08-31T16:54:00;3.00;;;0.80;;
15354;SDS011;7777;52.254;9.618;2023-08-31T16:56:26;4.13;;;1.07;;
15354;SDS011;7777;52.254;9.618;2023-08-31T16:58:53;4.27;;;1.07;;
15354;SDS011;7777;52.254;9.618;2023-08-31T17:01:29;3.17;;;0.70;;
15354;SDS011;7777;52.254;9.618;2023-08-31T17:03:55;2.47;;;0.90;;
15354;SDS011;7777;52.254;9.618;2023-08-31T17:06:30;1.23;;;0.80;;
15354;SDS011;7777;52.254;9.618;2023-08-31T17:09:04;2.33;;;0.80;;
15354;SDS011;7777;52.254;9.618;2023-08-31T17:11:33;2.67;;;0.90;;
15354;SDS011;7777;52.254;9.618;2023-08-31T17:17:25;2.07;;;0.90;;
15354;SDS011;7777;52.254;9.618;2023-08-31T17:20:05;2.73;;;0.83;;
15354;SDS011;7777;52.254;9.618;2023-08-31T17:22:41;4.40;;;1.20;;
15354;SDS011;7777;52.254;9.618;2023-08-31T17:25:11;3.33;;;1.00;;
15354;SDS011;7777;52.254;9.618;2023-08-31T17:27:38;2.03;;;0.70;;
15354;SDS011;7777;52.254;9.618;2023-08-31T17:30:04;1.57;;;0.63;;
15354;SDS011;7777;52.254;9.618;2023-08-31T17:32:40;2.67;;;0.90;;
15354;SDS011;7777;52.254;9.618;2023-08-31T17:35:06;1.17;;;0.73;;
15354;SDS011;7777;52.254;9.618;2023-08-31T17:37:33;2.43;;;0.90;;
15354;SDS011;7777;52.254;9.618;2023-08-31T17:40:05;1.77;;;0.80;;
15354;SDS011;7777;52.254;9.618;2023-08-31T17:42:38;5.20;;;1.40;;
15354;SDS011;7777;52.254;9.618;2023-08-31T17:45:07;3.93;;;1.10;;
15354;SDS011;7777;52.254;9.618;2023-08-31T17:47:34;1.70;;;0.83;;
15354;SDS011;7777;52.254;9.618;2023-08-31T17:50:00;3.50;;;1.00;;
15354;SDS011;7777;52.254;9.618;2023-08-31T17:52:27;3.00;;;0.90;;
15354;SDS011;7777;52.254;9.618;2023-08-31T17:54:53;4.03;;;0.87;;
15354;SDS011;7777;52.254;9.618;2023-08-31T17:57:25;3.63;;;0.93;;
15354;SDS011;7777;52.254;9.618;2023-08-31T18:00:11;3.43;;;1.00;;
15354;SDS011;7777;52.254;9.618;2023-08-31T18:02:54;3.33;;;1.10;;
15354;SDS011;7777;52.254;9.618;2023-08-31T18:05:47;0.87;;;0.57;;
15354;SDS011;7777;52.254;9.618;2023-08-31T18:11:19;2.43;;;0.77;;
15354;SDS011;7777;52.254;9.618;2023-08-31T18:16:35;2.80;;;0.93;;
15354;SDS011;7777;52.254;9.618;2023-08-31T18:19:05;3.90;;;0.90;;
15354;SDS011;7777;52.254;9.618;2023-08-31T18:21:48;2.53;;;0.70;;
15354;SDS011;7777;52.254;9.618;2023-08-31T18:24:20;2.30;;;1.07;;
15354;SDS011;7777;52.254;9.618;2023-08-31T18:30:04;3.03;;;1.10;;
15354;SDS011;7777;52.254;9.618;2023-08-31T18:32:34;3.07;;;1.10;;
15354;SDS011;7777;52.254;9.618;2023-08-31T18:35:01;2.43;;;0.83;;
15354;SDS011;7777;52.254;9.618;2023-08-31T18:37:28;6.47;;;1.20;;
15354;SDS011;7777;52.254;9.618;2023-08-31T18:39:54;3.37;;;1.00;;
15354;SDS011;7777;52.254;9.618;2023-08-31T18:42:20;3.17;;;1.10;;
15354;SDS011;7777;52.254;9.618;2023-08-31T18:44:45;1.87;;;0.90;;
15354;SDS011;7777;52.254;9.618;2023-08-31T18:47:14;3.93;;;1.00;;
15354;SDS011;7777;52.254;9.618;2023-08-31T18:49:40;1.53;;;0.77;;
15354;SDS011;7777;52.254;9.618;2023-08-31T18:52:05;5.10;;;1.23;;
15354;SDS011;7777;52.254;9.618;2023-08-31T18:54:31;6.03;;;1.10;;
15354;SDS011;7777;52.254;9.618;2023-08-31T18:56:57;2.93;;;0.83;;
15354;SDS011;7777;52.254;9.618;2023-08-31T18:59:23;1.30;;;0.70;;
15354;SDS011;7777;52.254;9.618;2023-08-31T19:01:48;4.20;;;1.00;;
15354;SDS011;7777;52.254;9.618;2023-08-31T19:04:14;4.77;;;1.00;;
15354;SDS011;7777;52.254;9.618;2023-08-31T19:06:40;1.70;;;0.80;;
15354;SDS011;7777;52.254;9.618;2023-08-31T19:09:08;2.87;;;1.20;;
15354;SDS011;7777;52.254;9.618;2023-08-31T19:11:35;1.77;;;0.90;;
15354;SDS011;7777;52.254;9.618;2023-08-31T19:14:00;3.50;;;1.50;;
15354;SDS011;7777;52.254;9.618;2023-08-31T19:16:26;8.53;;;1.20;;
15354;SDS011;7777;52.254;9.618;2023-08-31T19:18:57;2.20;;;1.10;;
15354;SDS011;7777;52.254;9.618;2023-08-31T19:21:23;2.20;;;1.23;;
15354;SDS011;7777;52.254;9.618;2023-08-31T19:23:49;3.37;;;1.47;;
15354;SDS011;7777;52.254;9.618;2023-08-31T19:26:14;4.73;;;1.03;;
15354;SDS011;7777;52.254;9.618;2023-08-31T19:28:40;1.80;;;1.10;;
15354;SDS011;7777;52.254;9.618;2023-08-31T19:31:06;3.23;;;1.30;;
15354;SDS011;7777;52.254;9.618;2023-08-31T19:33:32;2.43;;;1.20;;
15354;SDS011;7777;52.254;9.618;2023-08-31T19:35:58;3.97;;;1.53;;
15354;SDS011;7777;52.254;9.618;2023-08-31T19:38:23;4.60;;;1.60;;
15354;SDS011;7777;52.254;9.618;2023-08-31T19:40:50;5.67;;;1.73;;
15354;SDS011;7777;52.254;9.618;2023-08-31T19:43:16;5.10;;;1.10;;
15354;SDS011;7777;52.254;9.618;2023-08-31T19:45:42;3.23;;;1.40;;
15354;SDS011;7777;52.254;9.618;2023-08-31T19:48:09;4.40;;;1.73;;